Time;durP1;ratioP1;P1;durP2;ratioP2;P2;SDS_P1;SDS_P2;PMS_P1;PMS_P2;Temp;Humidity;BMP_temperature;BMP_pressure;BME280_temperature;BME280_humidity;BME280_pressure;Samples;Min_cycle;Max_cycle;Signal;HPM_P1;HPM_P2
2024/01/06 00:02:11;;;;;;;43.30;11.10;;;11.10;51.30;;;;;;5012106;28;20496;-55
2024/01/06 00:04:39;;;;;;;22.73;8.73;;;11.10;51.40;;;;;;5011444;28;20136;-56
2024/01/06 00:07:07;;;;;;;34.17;10.48;;;11.10;51.50;;;;;;5017256;28;20033;-54
2024/01/06 00:09:35;;;;;;;38.80;9.55;;;11.00;51.40;;;;;;5020919;28;20677;-53
2024/01/06 00:12:04;;;;;;;25.67;8.80;;;11.00;51.60;;;;;;5006870;28;20073;-54
2024/01/06 00:14:34;;;;;;;33.00;10.05;;;10.90;51.60;;;;;;5022699;28;20063;-52
2024/01/06 00:17:02;;;;;;;33.78;10.65;;;10.90;51.70;;;;;;5016462;28;20056;-50
2024/01/06 00:19:30;;;;;;;34.22;9.88;;;10.90;51.80;;;;;;5035699;28;20126;-51
2024/01/06 00:22:00;;;;;;;24.10;9.30;;;10.90;51.90;;;;;;5019700;28;20120;-50
2024/01/06 00:24:29;;;;;;;36.25;9.75;;;10.90;51.90;;;;;;5009379;28;20053;-52
2024/01/06 00:26:57;;;;;;;23.90;9.38;;;10.90;51.90;;;;;;5004277;28;20053;-51
2024/01/06 00:29:26;;;;;;;34.85;8.77;;;10.80;51.90;;;;;;5013641;28;20056;-51
2024/01/06 00:31:55;;;;;;;36.65;10.05;;;10.80;51.90;;;;;;5009965;28;20073;-50
2024/01/06 00:34:24;;;;;;;27.13;9.23;;;10.80;52.10;;;;;;5011248;28;20042;-50
2024/01/06 00:36:52;;;;;;;34.22;10.20;;;10.70;52.00;;;;;;5010501;28;20143;-54
2024/01/06 00:39:21;;;;;;;30.63;10.63;;;10.70;52.20;;;;;;5005741;28;20045;-55
2024/01/06 00:41:49;;;;;;;26.80;10.23;;;10.70;52.20;;;;;;5019140;28;20073;-54
2024/01/06 00:44:17;;;;;;;32.17;9.60;;;10.70;52.90;;;;;;5015026;28;20064;-56
2024/01/06 00:46:46;;;;;;;33.75;10.77;;;10.60;52.30;;;;;;5003171;28;20046;-53
2024/01/06 00:49:16;;;;;;;31.25;9.38;;;10.60;52.30;;;;;;4999894;28;20153;-52
2024/01/06 00:51:44;;;;;;;28.23;9.40;;;10.60;52.40;;;;;;5004623;28;20057;-51
2024/01/06 00:54:12;;;;;;;24.75;9.82;;;10.50;52.40;;;;;;5011271;28;20053;-56
2024/01/06 00:56:42;;;;;;;29.33;9.48;;;10.50;52.40;;;;;;5011723;28;20080;-54
2024/01/06 00:59:10;;;;;;;37.95;9.65;;;10.50;52.50;;;;;;5005981;28;20523;-53
2024/01/06 01:01:38;;;;;;;33.90;10.68;;;10.50;52.50;;;;;;5011008;28;20049;-54
2024/01/06 01:04:07;;;;;;;31.25;9.93;;;10.50;52.60;;;;;;5005568;28;20057;-54
2024/01/06 01:06:38;;;;;;;32.55;9.30;;;10.50;52.60;;;;;;5014691;28;20161;-54
2024/01/06 01:09:08;;;;;;;27.20;8.73;;;10.50;52.60;;;;;;5013287;28;20410;-52
2024/01/06 01:11:37;;;;;;;21.23;8.15;;;10.60;52.60;;;;;;5014861;28;20065;-54
2024/01/06 01:14:05;;;;;;;30.55;9.57;;;10.60;52.60;;;;;;5005259;28;20590;-55
2024/01/06 01:16:33;;;;;;;28.70;10.77;;;10.60;52.60;;;;;;5009566;28;20061;-55
2024/01/06 01:19:03;;;;;;;30.20;10.13;;;10.60;52.60;;;;;;5004865;28;20053;-54
2024/01/06 01:21:31;;;;;;;31.50;11.55;;;10.60;52.60;;;;;;5022709;28;20065;-54
2024/01/06 01:24:02;;;;;;;24.48;9.70;;;10.60;52.70;;;;;;5002363;28;20042;-50
2024/01/06 01:26:30;;;;;;;28.52;9.45;;;10.60;52.70;;;;;;5006388;28;20053;-53
2024/01/06 01:28:58;;;;;;;33.13;11.10;;;10.70;52.70;;;;;;5002956;28;20511;-54
2024/01/06 01:31:27;;;;;;;28.02;8.15;;;10.70;52.70;;;;;;5015704;28;20514;-52
2024/01/06 01:33:55;;;;;;;35.70;12.35;;;10.70;52.70;;;;;;5020344;28;20163;-54
2024/01/06 01:36:23;;;;;;;32.92;10.13;;;10.80;52.70;;;;;;5020772;28;20072;-56
2024/01/06 01:38:52;;;;;;;29.02;11.38;;;10.80;52.70;;;;;;5020384;28;20057;-54
2024/01/06 01:41:21;;;;;;;32.00;9.68;;;10.80;52.70;;;;;;5015113;28;21491;-51
2024/01/06 01:43:57;;;;;;;28.27;9.85;;;10.80;52.70;;;;;;5005963;28;20068;-56
2024/01/06 01:46:27;;;;;;;19.60;8.73;;;10.80;52.70;;;;;;5004896;28;20145;-53
2024/01/06 01:48:56;;;;;;;29.58;10.10;;;10.80;52.70;;;;;;5012811;28;20131;-54
2024/01/06 01:51:28;;;;;;;31.55;9.23;;;10.80;52.90;;;;;;5010755;28;20141;-52
2024/01/06 01:53:58;;;;;;;32.90;9.38;;;10.80;52.80;;;;;;5020580;28;20083;-54
2024/01/06 01:56:28;;;;;;;32.08;9.07;;;10.90;52.90;;;;;;5014574;28;20061;-52
2024/01/06 01:58:56;;;;;;;35.45;9.52;;;10.90;52.80;;;;;;5003950;28;20069;-54
2024/01/06 02:01:25;;;;;;;26.73;8.68;;;10.90;52.80;;;;;;5015666;28;20076;-54
2024/01/06 02:03:53;;;;;;;23.05;10.10;;;10.90;52.80;;;;;;5008794;28;20045;-53
2024/01/06 02:06:22;;;;;;;32.15;8.90;;;11.00;52.80;;;;;;5019983;28;20057;-53
2024/01/06 02:08:50;;;;;;;20.23;8.52;;;10.90;52.70;;;;;;5011442;28;20147;-51
2024/01/06 02:11:18;;;;;;;28.92;9.05;;;10.90;52.70;;;;;;5000746;28;21045;-54
2024/01/06 02:13:48;;;;;;;21.73;8.73;;;10.90;52.80;;;;;;5013567;28;20061;-55
2024/01/06 02:16:16;;;;;;;23.95;9.02;;;10.90;52.80;;;;;;5017921;28;20478;-55
2024/01/06 02:18:44;;;;;;;25.35;9.60;;;10.90;53.40;;;;;;5010949;28;20054;-54
2024/01/06 02:21:14;;;;;;;20.13;9.07;;;11.00;52.80;;;;;;5008958;28;20077;-56
2024/01/06 02:23:43;;;;;;;23.52;7.95;;;11.00;52.80;;;;;;5015916;28;20049;-52
2024/01/06 02:26:13;;;;;;;23.13;8.32;;;11.00;52.80;;;;;;5013238;28;20096;-53
2024/01/06 02:28:41;;;;;;;27.52;8.82;;;11.00;52.70;;;;;;5008286;28;20475;-54
2024/01/06 02:31:09;;;;;;;16.77;7.80;;;11.00;52.70;;;;;;5007802;28;20061;-54
2024/01/06 02:33:38;;;;;;;22.20;7.28;;;11.00;53.30;;;;;;5015029;28;20057;-54
2024/01/06 02:36:07;;;;;;;22.48;7.93;;;11.10;52.70;;;;;;5005159;28;20089;-51
2024/01/06 02:38:36;;;;;;;21.35;9.13;;;11.10;52.70;;;;;;5024362;28;20085;-53
2024/01/06 02:41:05;;;;;;;25.27;9.23;;;11.10;52.70;;;;;;5003534;28;20058;-52
2024/01/06 02:43:34;;;;;;;135.85;30.42;;;11.10;52.80;;;;;;5012437;28;20112;-53
2024/01/06 02:46:02;;;;;;;42.55;10.55;;;11.10;52.70;;;;;;5007036;28;20508;-52
2024/01/06 02:48:30;;;;;;;26.15;10.20;;;11.10;52.70;;;;;;5003733;28;20050;-53
2024/01/06 02:50:59;;;;;;;35.25;8.52;;;11.10;52.70;;;;;;5008021;28;20124;-52
2024/01/06 02:53:27;;;;;;;22.42;8.52;;;11.00;52.80;;;;;;5010003;28;20160;-53
2024/01/06 02:55:56;;;;;;;35.10;10.77;;;11.00;52.90;;;;;;5015973;28;20064;-55
2024/01/06 02:58:25;;;;;;;93.85;21.70;;;11.00;53.00;;;;;;5013275;28;20978;-51
2024/01/06 03:00:53;;;;;;;30.48;9.55;;;11.00;53.00;;;;;;5013616;28;20053;-54
2024/01/06 03:03:22;;;;;;;104.53;27.48;;;10.90;53.00;;;;;;5010148;28;20057;-51
2024/01/06 03:05:50;;;;;;;32.50;9.38;;;10.80;53.10;;;;;;5016897;28;20746;-54
2024/01/06 03:08:18;;;;;;;44.80;9.27;;;10.70;53.20;;;;;;5009193;28;20124;-54
2024/01/06 03:10:47;;;;;;;25.42;8.38;;;10.70;53.30;;;;;;5025342;28;20092;-53
2024/01/06 03:13:15;;;;;;;34.20;9.30;;;10.70;53.40;;;;;;5008581;28;20797;-52
2024/01/06 03:15:45;;;;;;;25.30;8.25;;;10.70;53.50;;;;;;5012182;28;20057;-51
2024/01/06 03:18:14;;;;;;;24.83;7.97;;;10.60;53.50;;;;;;5012811;28;20059;-52
2024/01/06 03:20:42;;;;;;;29.38;7.97;;;10.60;53.60;;;;;;5020641;28;20177;-53
2024/01/06 03:23:10;;;;;;;30.55;9.23;;;10.50;53.60;;;;;;5005845;28;20053;-54
2024/01/06 03:25:39;;;;;;;25.20;8.63;;;10.50;53.70;;;;;;5006958;28;20057;-54
2024/01/06 03:28:07;;;;;;;22.38;9.65;;;10.40;53.80;;;;;;5008796;28;20131;-52
2024/01/06 03:30:35;;;;;;;51.75;11.73;;;10.40;53.90;;;;;;5007604;28;20428;-55
2024/01/06 03:33:06;;;;;;;26.45;7.60;;;10.30;53.90;;;;;;5003834;28;20077;-54
2024/01/06 03:35:35;;;;;;;25.73;9.60;;;10.30;54.00;;;;;;5020021;28;20054;-53
2024/01/06 03:38:03;;;;;;;36.97;8.63;;;10.20;54.10;;;;;;5010044;28;20442;-53
2024/01/06 03:40:31;;;;;;;22.48;8.68;;;10.20;54.10;;;;;;5017859;28;20046;-52
2024/01/06 03:43:00;;;;;;;25.95;9.30;;;10.10;54.20;;;;;;5010369;28;20049;-52
2024/01/06 03:45:28;;;;;;;39.75;11.52;;;10.10;54.30;;;;;;5023428;28;20059;-52
2024/01/06 03:47:56;;;;;;;34.40;9.98;;;10.10;54.30;;;;;;5020357;28;20065;-53
2024/01/06 03:50:26;;;;;;;27.10;8.88;;;10.00;54.40;;;;;;5015916;28;20466;-53
2024/01/06 03:52:55;;;;;;;26.98;9.55;;;10.00;54.50;;;;;;5014041;28;20065;-55
2024/01/06 03:55:23;;;;;;;34.00;9.38;;;10.00;54.60;;;;;;5011173;28;20058;-53
2024/01/06 03:57:51;;;;;;;19.33;9.00;;;9.90;54.40;;;;;;5027423;28;20065;-54
2024/01/06 04:00:20;;;;;;;31.17;8.07;;;9.90;54.50;;;;;;5018026;28;21610;-53
2024/01/06 04:02:48;;;;;;;24.85;9.07;;;9.90;54.70;;;;;;5020741;28;20057;-54
2024/01/06 04:05:16;;;;;;;32.42;8.70;;;9.90;54.70;;;;;;5013820;28;20819;-55
2024/01/06 04:07:46;;;;;;;19.25;8.02;;;9.90;54.80;;;;;;5015746;28;20419;-53
2024/01/06 04:10:14;;;;;;;173.32;40.50;;;9.90;54.90;;;;;;4996419;28;20111;-53
2024/01/06 04:12:42;;;;;;;58.55;18.73;;;9.90;54.90;;;;;;5007331;28;20061;-50
2024/01/06 04:15:11;;;;;;;27.85;8.63;;;9.90;54.90;;;;;;5001881;28;20053;-56
2024/01/06 04:17:39;;;;;;;32.47;8.25;;;9.90;55.00;;;;;;5023442;28;20144;-55
2024/01/06 04:20:11;;;;;;;28.20;9.45;;;9.90;55.60;;;;;;5007754;28;20425;-52
2024/01/06 04:22:39;;;;;;;32.42;10.95;;;9.90;55.00;;;;;;5019736;28;20050;-55
2024/01/06 04:25:09;;;;;;;24.15;9.80;;;9.80;55.00;;;;;;5003420;28;20084;-54
2024/01/06 04:27:37;;;;;;;20.33;8.30;;;9.80;55.10;;;;;;5016870;28;20064;-50
2024/01/06 04:30:06;;;;;;;27.50;8.38;;;9.80;55.20;;;;;;5024635;28;20156;-54
2024/01/06 04:32:34;;;;;;;28.15;9.18;;;9.80;55.20;;;;;;5025542;28;20053;-53
2024/01/06 04:35:03;;;;;;;37.28;9.93;;;9.90;55.30;;;;;;5004517;28;20453;-54
2024/01/06 04:37:31;;;;;;;34.72;9.85;;;9.90;55.30;;;;;;5018208;28;20767;-53
2024/01/06 04:39:59;;;;;;;22.38;8.38;;;9.90;55.40;;;;;;5010338;28;20065;-51
2024/01/06 04:42:29;;;;;;;23.42;7.75;;;9.90;55.80;;;;;;5021681;28;20050;-52
2024/01/06 04:44:57;;;;;;;21.83;9.57;;;9.80;56.60;;;;;;5007084;28;20053;-52
2024/01/06 04:47:27;;;;;;;23.23;8.82;;;9.80;57.00;;;;;;5018829;28;20073;-55
2024/01/06 04:49:55;;;;;;;25.30;8.32;;;9.80;57.30;;;;;;5008053;28;20415;-56
2024/01/06 04:52:24;;;;;;;22.63;8.70;;;9.80;57.40;;;;;;5016160;28;20141;-50
2024/01/06 04:54:52;;;;;;;25.55;8.48;;;9.80;57.50;;;;;;5022332;28;20061;-55
2024/01/06 04:57:21;;;;;;;24.50;8.48;;;9.80;57.50;;;;;;5005869;28;21410;-53
2024/01/06 04:59:50;;;;;;;22.25;7.78;;;9.80;57.50;;;;;;5015357;28;20140;-54
2024/01/06 05:02:19;;;;;;;16.13;7.20;;;9.80;57.60;;;;;;5024191;28;20061;-52
2024/01/06 05:04:47;;;;;;;20.98;6.88;;;9.80;57.60;;;;;;5013895;28;20523;-52
2024/01/06 05:07:15;;;;;;;31.85;9.20;;;9.80;57.60;;;;;;5009927;28;20110;-52
2024/01/06 05:09:44;;;;;;;44.92;10.18;;;9.80;57.50;;;;;;5008497;28;20058;-52
2024/01/06 05:12:12;;;;;;;37.33;9.48;;;9.80;57.60;;;;;;5019111;28;20112;-51
2024/01/06 05:14:41;;;;;;;28.92;8.15;;;9.80;57.50;;;;;;5018445;28;20053;-54
2024/01/06 05:17:10;;;;;;;18.35;8.68;;;9.80;57.60;;;;;;5014443;28;20073;-55
2024/01/06 05:19:38;;;;;;;25.38;9.48;;;9.80;57.60;;;;;;5018741;28;20098;-52
2024/01/06 05:22:07;;;;;;;28.05;9.82;;;9.80;57.60;;;;;;5027587;28;20388;-56
2024/01/06 05:24:35;;;;;;;26.48;8.45;;;9.80;57.60;;;;;;5022256;28;20521;-55
2024/01/06 05:27:03;;;;;;;17.20;7.20;;;9.80;57.60;;;;;;5007622;28;20061;-53
2024/01/06 05:29:31;;;;;;;10.02;3.40;;;9.80;57.60;;;;;;5015020;28;20556;-54
2024/01/06 05:31:59;;;;;;;20.67;5.72;;;9.80;57.60;;;;;;5021796;28;20052;-55
2024/01/06 05:34:29;;;;;;;26.77;4.63;;;9.80;57.60;;;;;;5014036;28;20061;-56
2024/01/06 05:36:57;;;;;;;5.40;3.92;;;9.80;57.60;;;;;;5010643;28;20111;-57
2024/01/06 05:39:26;;;;;;;3.95;3.20;;;9.80;57.60;;;;;;5011060;28;20491;-55
2024/01/06 05:41:54;;;;;;;8.32;3.40;;;9.90;57.70;;;;;;5016577;28;20057;-55
2024/01/06 05:44:22;;;;;;;6.00;4.20;;;9.90;57.70;;;;;;5018587;28;20056;-57
2024/01/06 05:46:51;;;;;;;3.90;2.97;;;9.90;57.70;;;;;;5011263;28;20069;-56
2024/01/06 05:49:20;;;;;;;4.22;3.75;;;9.90;57.70;;;;;;5016479;28;22557;-57
2024/01/06 05:51:49;;;;;;;9.32;3.85;;;9.90;57.70;;;;;;5013279;28;20179;-55
2024/01/06 05:54:17;;;;;;;9.30;5.88;;;9.90;57.70;;;;;;5011318;28;20163;-56
2024/01/06 05:56:46;;;;;;;3.45;3.15;;;9.90;57.70;;;;;;5020438;28;20140;-56
2024/01/06 05:59:14;;;;;;;10.40;2.67;;;10.00;57.70;;;;;;5007057;28;20530;-57
2024/01/06 06:01:43;;;;;;;4.07;3.60;;;10.00;57.70;;;;;;5010347;28;20042;-57
2024/01/06 06:04:12;;;;;;;5.18;2.95;;;10.00;57.70;;;;;;5017354;28;20079;-58
2024/01/06 06:06:40;;;;;;;4.30;3.10;;;10.00;57.60;;;;;;5009938;28;20050;-55
2024/01/06 06:09:10;;;;;;;2.03;1.85;;;10.00;57.60;;;;;;5004650;28;20072;-57
2024/01/06 06:11:38;;;;;;;6.57;4.53;;;10.00;57.60;;;;;;5007742;28;20131;-55
2024/01/06 06:14:06;;;;;;;5.90;4.18;;;10.10;57.60;;;;;;5012306;28;20570;-57
2024/01/06 06:16:34;;;;;;;7.72;4.85;;;10.10;57.60;;;;;;5010093;28;20572;-58
2024/01/06 06:19:03;;;;;;;11.75;4.07;;;10.10;57.70;;;;;;5015042;28;20080;-56
2024/01/06 06:21:32;;;;;;;4.80;2.78;;;10.10;57.60;;;;;;5011536;28;20499;-56
2024/01/06 06:24:00;;;;;;;8.23;2.50;;;10.10;57.60;;;;;;5013678;28;20089;-56
2024/01/06 06:26:29;;;;;;;6.97;3.67;;;10.10;57.60;;;;;;5009049;28;20049;-55
2024/01/06 06:28:58;;;;;;;9.35;3.25;;;10.10;57.60;;;;;;4998830;28;20148;-57
2024/01/06 06:31:26;;;;;;;5.38;3.58;;;10.10;57.60;;;;;;5008744;28;20078;-52
2024/01/06 06:33:54;;;;;;;17.35;5.20;;;10.10;57.70;;;;;;5007399;28;20063;-57
2024/01/06 06:36:23;;;;;;;4.05;2.45;;;10.10;57.80;;;;;;5002434;28;20060;-55
2024/01/06 06:38:51;;;;;;;2.15;1.73;;;10.10;57.80;;;;;;5014249;28;20075;-57
2024/01/06 06:41:20;;;;;;;2.30;2.10;;;10.20;57.70;;;;;;5003213;28;20061;-57
2024/01/06 06:43:50;;;;;;;7.15;4.00;;;10.10;57.70;;;;;;5010991;28;20140;-57
2024/01/06 06:46:18;;;;;;;4.00;3.40;;;10.20;57.80;;;;;;5011573;28;20077;-58
2024/01/06 06:48:47;;;;;;;4.85;2.90;;;10.20;57.80;;;;;;5008644;28;20049;-58
2024/01/06 06:51:15;;;;;;;24.92;4.10;;;10.20;57.80;;;;;;5005464;28;20049;-54
2024/01/06 06:53:43;;;;;;;3.83;2.88;;;10.20;57.90;;;;;;5013517;28;20060;-57
2024/01/06 06:56:17;;;;;;;3.45;2.85;;;10.20;57.90;;;;;;5005296;28;20058;-56
2024/01/06 06:58:45;;;;;;;9.30;3.80;;;10.20;57.90;;;;;;5007076;28;20507;-56
2024/01/06 07:01:16;;;;;;;6.38;2.45;;;10.20;57.80;;;;;;5005901;28;20466;-53
2024/01/06 07:03:45;;;;;;;5.07;2.88;;;10.20;57.80;;;;;;5007091;28;20508;-56
2024/01/06 07:06:13;;;;;;;9.43;2.40;;;10.30;57.80;;;;;;5010241;28;20066;-57
2024/01/06 07:08:42;;;;;;;4.35;3.17;;;10.20;57.90;;;;;;5003804;28;20058;-57
2024/01/06 07:11:11;;;;;;;11.38;4.15;;;10.20;57.70;;;;;;5003121;28;20045;-56
2024/01/06 07:13:40;;;;;;;4.22;2.33;;;10.20;58.40;;;;;;5014561;28;20045;-52
2024/01/06 07:16:08;;;;;;;4.85;2.45;;;10.20;57.80;;;;;;5012484;28;20062;-55
2024/01/06 07:18:47;;;;;;;5.13;3.28;;;10.20;57.80;;;;;;5016442;28;20077;-56
2024/01/06 07:21:16;;;;;;;6.05;2.65;;;10.20;57.90;;;;;;5006086;28;20049;-54
2024/01/06 07:23:44;;;;;;;7.95;3.20;;;10.20;57.90;;;;;;5009921;28;20057;-56
2024/01/06 07:26:13;;;;;;;2.20;2.08;;;10.10;57.90;;;;;;5010545;28;20050;-55
2024/01/06 07:28:41;;;;;;;3.08;1.90;;;10.10;58.00;;;;;;5018822;28;20458;-51
2024/01/06 07:31:09;;;;;;;2.10;1.73;;;10.10;57.90;;;;;;5014727;28;20455;-57
2024/01/06 07:33:37;;;;;;;9.57;3.03;;;10.10;58.00;;;;;;5015237;28;20072;-57
2024/01/06 07:36:07;;;;;;;5.97;3.00;;;10.10;58.60;;;;;;5010073;28;20565;-56
2024/01/06 07:38:36;;;;;;;2.90;2.50;;;10.10;58.10;;;;;;5011986;28;20057;-56
2024/01/06 07:41:05;;;;;;;7.45;3.65;;;10.10;58.10;;;;;;5006962;28;20057;-56
2024/01/06 07:43:33;;;;;;;64.63;5.00;;;10.20;58.20;;;;;;5015005;28;20057;-56
2024/01/06 07:46:03;;;;;;;2.38;1.77;;;10.20;58.20;;;;;;5011983;28;20100;-56
2024/01/06 07:48:32;;;;;;;3.53;2.03;;;10.20;58.20;;;;;;5017762;28;20263;-56
2024/01/06 07:51:00;;;;;;;5.88;2.05;;;10.10;58.00;;;;;;5008278;28;20041;-56
2024/01/06 07:53:30;;;;;;;5.47;2.17;;;10.10;58.10;;;;;;5012940;28;20088;-54
2024/01/06 07:55:58;;;;;;;0.82;0.82;;;10.00;58.30;;;;;;5017053;28;20079;-60
2024/01/06 07:58:27;;;;;;;6.68;2.70;;;10.10;58.60;;;;;;5016770;28;20058;-59
2024/01/06 08:00:56;;;;;;;5.60;2.92;;;10.10;58.70;;;;;;5008351;28;20181;-54
2024/01/06 08:03:24;;;;;;;2.85;1.70;;;10.10;58.80;;;;;;5005949;28;21442;-58
2024/01/06 08:05:54;;;;;;;2.42;1.42;;;10.10;58.80;;;;;;5003869;28;20058;-59
2024/01/06 08:08:22;;;;;;;0.85;0.85;;;10.10;58.80;;;;;;5015916;28;20582;-59
2024/01/06 08:10:52;;;;;;;0.30;0.30;;;10.10;58.90;;;;;;5011810;28;20052;-59
2024/01/06 08:13:20;;;;;;;0.30;0.30;;;10.10;58.90;;;;;;5007355;28;20854;-60
2024/01/06 08:15:49;;;;;;;0.25;0.25;;;10.20;58.80;;;;;;5014495;28;20146;-60
2024/01/06 08:18:19;;;;;;;0.30;0.30;;;10.20;58.80;;;;;;5012801;28;20131;-58
2024/01/06 08:20:47;;;;;;;0.30;0.30;;;10.20;58.80;;;;;;5015643;28;20411;-60
2024/01/06 08:23:16;;;;;;;0.30;0.30;;;10.20;58.80;;;;;;5007944;28;20902;-59
2024/01/06 08:25:45;;;;;;;0.30;0.30;;;10.30;58.80;;;;;;5029887;28;20050;-61
2024/01/06 08:28:16;;;;;;;0.30;0.30;;;10.30;58.60;;;;;;5016347;28;20068;-63
2024/01/06 08:30:44;;;;;;;0.30;0.30;;;10.30;58.70;;;;;;5017408;28;20450;-60
2024/01/06 08:33:12;;;;;;;0.30;0.30;;;10.30;58.50;;;;;;5004982;28;20061;-62
2024/01/06 08:35:41;;;;;;;0.30;0.30;;;10.30;58.50;;;;;;5012289;28;20570;-61
2024/01/06 08:38:09;;;;;;;0.30;0.30;;;10.30;58.60;;;;;;5013416;28;20066;-59
2024/01/06 08:40:37;;;;;;;0.30;0.30;;;10.30;58.70;;;;;;5016062;28;20490;-61
2024/01/06 08:43:06;;;;;;;0.30;0.30;;;10.30;58.60;;;;;;5008630;28;20057;-60
2024/01/06 08:45:35;;;;;;;0.30;0.30;;;10.30;58.50;;;;;;5013380;28;20131;-58
2024/01/06 08:48:04;;;;;;;0.30;0.30;;;10.20;58.50;;;;;;5006828;28;21378;-60
2024/01/06 08:50:33;;;;;;;0.30;0.30;;;10.20;58.60;;;;;;5016291;28;20053;-65
2024/01/06 08:53:01;;;;;;;0.30;0.30;;;10.30;58.70;;;;;;5003172;28;20567;-60
2024/01/06 08:55:29;;;;;;;0.30;0.30;;;10.30;58.70;;;;;;5014488;28;20116;-61
2024/01/06 08:57:58;;;;;;;0.28;0.28;;;10.30;58.70;;;;;;5007360;28;20621;-59
2024/01/06 09:00:26;;;;;;;0.30;0.30;;;10.40;58.70;;;;;;5011793;28;20085;-60
2024/01/06 09:02:56;;;;;;;0.30;0.30;;;10.40;58.60;;;;;;5010107;28;20164;-61
2024/01/06 09:05:24;;;;;;;0.30;0.30;;;10.50;58.50;;;;;;5025274;28;20089;-64
2024/01/06 09:07:52;;;;;;;0.30;0.30;;;10.50;58.60;;;;;;5012464;28;20567;-61
2024/01/06 09:10:23;;;;;;;0.30;0.30;;;10.50;58.60;;;;;;5020822;28;20067;-61
2024/01/06 09:12:50;;;;;;;0.20;0.20;;;10.50;58.60;;;;;;5017523;28;20048;-61
2024/01/06 09:15:19;;;;;;;0.30;0.30;;;10.60;58.60;;;;;;5006210;28;20054;-59
2024/01/06 09:17:48;;;;;;;0.30;0.30;;;10.60;58.50;;;;;;5010916;28;20054;-59
2024/01/06 09:20:22;;;;;;;0.30;0.30;;;10.70;58.50;;;;;;5027105;28;20157;-59
2024/01/06 09:22:51;;;;;;;0.30;0.30;;;10.70;58.50;;;;;;5012357;28;20149;-58
2024/01/06 09:25:19;;;;;;;0.30;0.30;;;10.60;58.40;;;;;;5012284;28;21054;-58
2024/01/06 09:27:48;;;;;;;0.30;0.30;;;10.60;58.40;;;;;;5019619;28;20118;-59
2024/01/06 09:30:16;;;;;;;0.30;0.30;;;10.60;58.50;;;;;;5015698;28;20061;-58
2024/01/06 09:32:44;;;;;;;0.30;0.30;;;10.60;58.60;;;;;;5017550;28;20107;-58
2024/01/06 09:35:13;;;;;;;0.30;0.30;;;10.60;58.50;;;;;;5012745;28;20137;-59
2024/01/06 09:37:43;;;;;;;0.30;0.30;;;10.60;58.50;;;;;;5013230;28;20176;-57
2024/01/06 09:40:14;;;;;;;0.30;0.30;;;10.70;58.50;;;;;;5009148;28;20057;-58
2024/01/06 09:42:42;;;;;;;0.30;0.30;;;10.70;58.50;;;;;;5011271;28;20072;-57
2024/01/06 09:45:11;;;;;;;0.30;0.30;;;10.70;58.40;;;;;;5009688;28;20065;-55
2024/01/06 09:47:42;;;;;;;0.30;0.30;;;10.70;58.40;;;;;;5012557;28;20054;-54
2024/01/06 09:50:10;;;;;;;0.30;0.30;;;10.70;58.40;;;;;;5012854;28;20042;-59
2024/01/06 09:52:44;;;;;;;0.30;0.30;;;10.70;58.40;;;;;;5010382;28;20066;-55
2024/01/06 09:55:13;;;;;;;0.30;0.30;;;10.80;58.50;;;;;;5007077;28;20509;-58
2024/01/06 09:57:41;;;;;;;0.30;0.30;;;10.80;58.50;;;;;;5009118;28;20415;-58
2024/01/06 10:00:11;;;;;;;0.30;0.30;;;10.80;58.50;;;;;;5011697;28;20050;-58
2024/01/06 10:02:40;;;;;;;0.30;0.30;;;10.80;58.50;;;;;;5015904;28;20034;-58
2024/01/06 10:05:09;;;;;;;0.30;0.30;;;10.80;58.40;;;;;;5004011;28;20105;-57
2024/01/06 10:07:38;;;;;;;0.30;0.30;;;10.80;58.50;;;;;;5013636;28;20526;-56
2024/01/06 10:10:10;;;;;;;0.30;0.30;;;10.90;58.70;;;;;;5024531;28;20045;-57
2024/01/06 10:12:39;;;;;;;0.30;0.30;;;10.90;58.70;;;;;;5020154;28;20168;-56
2024/01/06 10:15:14;;;;;;;0.20;0.20;;;10.90;58.60;;;;;;5011143;28;20510;-58
2024/01/06 10:17:43;;;;;;;0.30;0.30;;;10.90;58.50;;;;;;5016446;28;20048;-58
2024/01/06 10:20:13;;;;;;;0.20;0.20;;;11.00;58.60;;;;;;5009968;28;20110;-57
2024/01/06 10:22:42;;;;;;;0.28;0.28;;;10.90;58.50;;;;;;5008793;28;20081;-57
2024/01/06 10:25:12;;;;;;;0.20;0.20;;;11.00;58.60;;;;;;5006315;28;20063;-59
2024/01/06 10:27:42;;;;;;;0.30;0.30;;;11.00;58.60;;;;;;5012043;28;20048;-56
2024/01/06 10:30:12;;;;;;;0.20;0.20;;;11.00;58.50;;;;;;5016332;28;20062;-58
2024/01/06 10:32:41;;;;;;;0.28;0.28;;;11.00;58.50;;;;;;5004514;28;20056;-55
2024/01/06 10:35:10;;;;;;;0.30;0.30;;;11.00;58.50;;;;;;5000021;28;20049;-61
2024/01/06 10:37:40;;;;;;;0.30;0.30;;;11.00;58.50;;;;;;4999289;28;20516;-61
2024/01/06 10:40:12;;;;;;;0.20;0.20;;;11.00;58.60;;;;;;5008123;28;20061;-58
2024/01/06 10:42:41;;;;;;;0.30;0.30;;;11.00;58.60;;;;;;5001564;28;20053;-56
2024/01/06 10:45:12;;;;;;;0.20;0.20;;;11.00;58.60;;;;;;5004755;28;20057;-58
2024/01/06 10:47:42;;;;;;;0.30;0.30;;;11.00;58.60;;;;;;5015124;28;20046;-54
2024/01/06 10:50:13;;;;;;;0.20;0.20;;;11.00;58.60;;;;;;5013115;28;20425;-57
2024/01/06 10:52:42;;;;;;;0.30;0.30;;;11.10;58.70;;;;;;5005883;28;20491;-56
2024/01/06 10:55:14;;;;;;;0.20;0.20;;;11.10;58.70;;;;;;5008708;28;20049;-59
2024/01/06 10:57:44;;;;;;;0.30;0.30;;;11.10;58.70;;;;;;5010405;28;20060;-57
2024/01/06 11:00:14;;;;;;;0.30;0.30;;;11.10;58.70;;;;;;5011649;28;21212;-56
2024/01/06 11:02:44;;;;;;;0.30;0.30;;;11.20;58.70;;;;;;5002401;28;20072;-55
2024/01/06 11:05:13;;;;;;;0.30;0.30;;;11.20;58.70;;;;;;4996546;28;20063;-54
2024/01/06 11:07:42;;;;;;;0.30;0.30;;;11.20;58.70;;;;;;4998838;28;20197;-57
2024/01/06 11:10:17;;;;;;;0.20;0.20;;;11.20;58.70;;;;;;5003213;28;20060;-60
2024/01/06 11:13:22;;;;;;;0.30;0.30;;;11.20;58.70;;;;;;5007562;28;20058;-56
2024/01/06 11:15:52;;;;;;;0.30;0.30;;;11.20;58.70;;;;;;4985955;28;20301;-55
2024/01/06 11:18:37;;;;;;;0.30;0.30;;;11.20;58.70;;;;;;4998523;28;20137;-58
2024/01/06 11:21:25;;;;;;;0.30;0.30;;;11.20;58.70;;;;;;4985379;28;20057;-59
2024/01/06 11:24:17;;;;;;;0.20;0.20;;;11.20;58.80;;;;;;5008141;28;20423;-56
2024/01/06 11:26:50;;;;;;;0.30;0.30;;;11.20;58.80;;;;;;5006496;28;20061;-61
2024/01/06 11:29:19;;;;;;;0.30;0.30;;;11.20;58.80;;;;;;5004640;28;21002;-58
2024/01/06 11:32:18;;;;;;;0.30;0.30;;;11.20;58.70;;;;;;5005087;28;20149;-57
2024/01/06 11:34:50;;;;;;;0.30;0.30;;;11.10;58.80;;;;;;5013015;28;20141;-58
2024/01/06 11:37:25;;;;;;;0.30;0.30;;;11.10;58.80;;;;;;4993562;28;20238;-56
2024/01/06 11:39:54;;;;;;;0.30;0.30;;;11.10;58.80;;;;;;5027742;28;20054;-58
2024/01/06 11:42:33;;;;;;;0.22;0.22;;;11.10;58.90;;;;;;5007509;28;20093;-55
2024/01/06 11:45:05;;;;;;;0.30;0.30;;;11.10;58.80;;;;;;4999661;28;20061;-55
2024/01/06 11:47:33;;;;;;;0.30;0.30;;;11.00;58.80;;;;;;5012045;28;20065;-57
2024/01/06 11:50:04;;;;;;;0.30;0.30;;;11.00;58.80;;;;;;4993289;28;20489;-61
2024/01/06 11:52:33;;;;;;;0.30;0.30;;;11.00;58.90;;;;;;5011624;28;20053;-60
2024/01/06 11:55:03;;;;;;;0.30;0.30;;;11.00;58.90;;;;;;5002790;28;20524;-59
2024/01/06 11:57:32;;;;;;;0.30;0.30;;;11.00;58.90;;;;;;5004741;28;20080;-59
2024/01/06 12:00:04;;;;;;;0.30;0.30;;;11.00;59.00;;;;;;5009393;28;20410;-59
2024/01/06 12:02:33;;;;;;;0.30;0.30;;;11.00;58.90;;;;;;5013050;28;20116;-60
2024/01/06 12:05:02;;;;;;;0.30;0.30;;;11.00;59.50;;;;;;5002138;28;20115;-60
2024/01/06 12:07:31;;;;;;;0.30;0.30;;;10.90;59.00;;;;;;5011697;28;20057;-59
2024/01/06 12:10:04;;;;;;;0.38;0.38;;;11.00;59.00;;;;;;4998595;28;20687;-62
2024/01/06 12:12:34;;;;;;;0.30;0.30;;;10.90;59.00;;;;;;5016526;28;20057;-60
2024/01/06 12:15:02;;;;;;;0.28;0.28;;;10.90;59.00;;;;;;5008652;28;20605;-58
2024/01/06 12:17:31;;;;;;;0.30;0.30;;;10.90;59.00;;;;;;5005929;28;20045;-55
2024/01/06 12:20:00;;;;;;;0.30;0.30;;;10.90;59.00;;;;;;5007674;28;20144;-58
2024/01/06 12:22:28;;;;;;;0.30;0.30;;;10.80;59.00;;;;;;5006233;28;20053;-58
2024/01/06 12:24:59;;;;;;;0.30;0.30;;;10.80;59.10;;;;;;5001118;28;20068;-59
2024/01/06 12:27:27;;;;;;;0.30;0.30;;;10.80;59.10;;;;;;4998629;28;20562;-57
2024/01/06 12:29:57;;;;;;;0.30;0.30;;;10.70;59.10;;;;;;5005425;28;20057;-58
2024/01/06 12:32:25;;;;;;;0.30;0.30;;;10.80;59.20;;;;;;5003589;28;20053;-56
2024/01/06 12:34:55;;;;;;;0.30;0.30;;;10.70;59.20;;;;;;5007409;28;20053;-59
2024/01/06 12:37:24;;;;;;;0.30;0.30;;;10.70;59.20;;;;;;5003880;28;20069;-58
2024/01/06 12:39:54;;;;;;;0.30;0.30;;;10.70;59.90;;;;;;5020000;28;20522;-57
2024/01/06 12:42:23;;;;;;;0.30;0.30;;;10.70;60.40;;;;;;5002485;28;20461;-59
2024/01/06 12:44:52;;;;;;;0.30;0.30;;;10.70;60.90;;;;;;5003943;28;20053;-57
2024/01/06 12:47:22;;;;;;;0.30;0.30;;;10.70;61.90;;;;;;4991012;28;21389;-59
2024/01/06 12:49:51;;;;;;;0.30;0.30;;;10.60;61.30;;;;;;5005987;28;20058;-59
2024/01/06 12:52:19;;;;;;;0.30;0.30;;;10.70;61.70;;;;;;5008592;28;21894;-61
2024/01/06 12:54:48;;;;;;;0.30;0.30;;;10.60;61.80;;;;;;5005084;28;20095;-59